Time;durP1;ratioP1;P1;durP2;ratioP2;P2;SDS_P1;SDS_P2;PMS_P1;PMS_P2;Temp;Humidity;BMP_temperature;BMP_pressure;BME280_temperature;BME280_humidity;BME280_pressure;Samples;Min_cycle;Max_cycle;Signal;HPM_P1;HPM_P2
2022/02/13 00:02:07;;;;;;;9.77;4.70;;;;;;;3.68;59.66;100116.56;5089989;28;20492;-60
2022/02/13 00:04:34;;;;;;;9.45;4.63;;;;;;;3.66;59.88;100116.63;5089009;28;20047;-59
2022/02/13 00:07:01;;;;;;;6.55;4.22;;;;;;;3.67;59.88;100113.13;5090067;28;20113;-59
2022/02/13 00:09:30;;;;;;;10.88;4.55;;;;;;;3.68;60.29;100099.22;5089605;28;20048;-61
2022/02/13 00:12:00;;;;;;;9.43;4.38;;;;;;;3.66;60.09;100090.56;5093827;28;20044;-58
2022/02/13 00:14:28;;;;;;;11.38;4.57;;;;;;;3.65;59.82;100096.69;5093577;28;20048;-60
2022/02/13 00:16:55;;;;;;;11.98;4.63;;;;;;;3.67;60.15;100109.66;5092239;28;20390;-59
2022/02/13 00:19:21;;;;;;;13.60;5.00;;;;;;;3.67;60.09;100096.66;5093655;28;20101;-57
2022/02/13 00:21:50;;;;;;;8.80;4.30;;;;;;;3.65;60.48;100094.94;5093576;28;20052;-59
2022/02/13 00:24:17;;;;;;;6.22;4.00;;;;;;;3.65;60.47;100094.94;5091960;28;20519;-58
2022/02/13 00:26:44;;;;;;;8.02;4.40;;;;;;;3.65;60.64;100089.75;5093502;28;20146;-59
2022/02/13 00:29:12;;;;;;;14.45;5.03;;;;;;;3.65;60.64;100094.94;5093176;28;20051;-60
2022/02/13 00:31:39;;;;;;;8.23;4.50;;;;;;;3.65;60.34;100096.69;5093602;28;20542;-57
2022/02/13 00:34:05;;;;;;;13.75;5.53;;;;;;;3.63;60.66;100099.31;5093190;28;20558;-59
2022/02/13 00:36:32;;;;;;;14.40;4.97;;;;;;;3.63;60.81;100086.31;5092984;28;20048;-60
2022/02/13 00:38:59;;;;;;;8.55;4.25;;;;;;;3.63;60.85;100086.31;5091864;28;20094;-60
2022/02/13 00:41:26;;;;;;;10.13;4.20;;;;;;;3.62;60.49;100084.59;5092832;28;20052;-59
2022/02/13 00:43:52;;;;;;;9.60;4.75;;;;;;;3.61;60.78;100079.41;5091722;28;20048;-61
2022/02/13 00:46:20;;;;;;;13.73;5.32;;;;;;;3.58;60.33;100071.66;5093021;28;20079;-58
2022/02/13 00:48:46;;;;;;;6.47;4.20;;;;;;;3.57;60.50;100067.38;5092133;28;20052;-57
2022/02/13 00:51:13;;;;;;;10.18;4.88;;;;;;;3.55;60.92;100056.97;5092509;28;20458;-60
2022/02/13 00:53:40;;;;;;;9.70;4.68;;;;;;;3.54;60.85;100052.69;5092973;28;20097;-59
2022/02/13 00:56:07;;;;;;;7.65;4.68;;;;;;;3.52;60.88;100062.28;5091532;28;20482;-61
2022/02/13 00:58:35;;;;;;;10.75;4.88;;;;;;;3.51;60.83;100047.53;5092557;28;20074;-59
2022/02/13 01:01:03;;;;;;;8.65;4.75;;;;;;;3.51;60.99;100056.22;5091315;28;20083;-57
2022/02/13 01:03:31;;;;;;;15.73;5.35;;;;;;;3.49;60.74;100054.53;5092406;28;20068;-59
2022/02/13 01:05:58;;;;;;;12.93;4.72;;;;;;;3.49;61.21;100044.13;5092474;28;20052;-60
2022/02/13 01:08:24;;;;;;;11.35;4.68;;;;;;;3.47;60.97;100038.94;5092655;28;20496;-59
2022/02/13 01:10:51;;;;;;;9.80;4.70;;;;;;;3.45;60.96;100032.94;5092182;28;20044;-59
2022/02/13 01:13:18;;;;;;;10.00;5.05;;;;;;;3.44;61.40;100036.41;5092693;28;20557;-60
2022/02/13 01:15:45;;;;;;;11.82;4.65;;;;;;;3.44;61.34;100038.19;5092345;28;20100;-59
2022/02/13 01:18:12;;;;;;;9.50;4.53;;;;;;;3.44;61.33;100043.38;5092701;28;20454;-60
2022/02/13 01:20:40;;;;;;;11.25;4.90;;;;;;;3.41;61.01;100033.91;5090932;28;20052;-60
2022/02/13 01:23:07;;;;;;;8.55;4.82;;;;;;;3.41;61.04;100044.31;5092634;28;20055;-59
2022/02/13 01:25:35;;;;;;;9.65;5.13;;;;;;;3.40;60.87;100034.75;5092226;28;20058;-59
2022/02/13 01:28:03;;;;;;;9.52;4.68;;;;;;;3.39;60.99;100039.13;5092387;28;20101;-58
2022/02/13 01:30:30;;;;;;;8.20;4.90;;;;;;;3.39;61.14;100040.88;5091498;28;20543;-62
2022/02/13 01:32:56;;;;;;;9.63;4.88;;;;;;;3.36;61.15;100044.41;5092163;28;20044;-58
2022/02/13 01:35:23;;;;;;;8.32;4.53;;;;;;;3.34;61.36;100043.59;5092132;28;20044;-59
2022/02/13 01:37:49;;;;;;;7.65;4.55;;;;;;;3.34;61.22;100034.91;5092190;28;20629;-60
2022/02/13 01:40:16;;;;;;;11.02;5.28;;;;;;;3.33;61.71;100028.00;5091910;28;20052;-60
2022/02/13 01:42:43;;;;;;;12.07;4.85;;;;;;;3.31;61.06;100027.16;5091806;28;20047;-59
2022/02/13 01:45:10;;;;;;;9.88;4.93;;;;;;;3.29;61.70;100016.78;5091852;28;20466;-60
2022/02/13 01:47:37;;;;;;;10.57;4.78;;;;;;;3.26;61.29;100024.69;5091744;28;20094;-59
2022/02/13 01:50:07;;;;;;;11.70;4.85;;;;;;;3.25;61.13;100030.75;5090316;28;20044;-59
2022/02/13 01:52:36;;;;;;;9.30;4.60;;;;;;;3.24;61.47;100022.13;5091661;28;20480;-59
2022/02/13 01:55:03;;;;;;;15.10;5.63;;;;;;;3.23;61.66;100023.00;5091996;28;20056;-59
2022/02/13 01:57:30;;;;;;;11.48;4.85;;;;;;;3.22;61.37;100008.28;5091238;28;20586;-63
2022/02/13 01:59:57;;;;;;;10.23;5.15;;;;;;;3.20;61.56;99994.47;5090279;28;20144;-60
2022/02/13 02:02:24;;;;;;;12.18;6.00;;;;;;;3.18;61.25;99985.81;5091557;28;20101;-56
2022/02/13 02:04:52;;;;;;;10.98;4.88;;;;;;;3.17;62.08;99984.13;5091722;28;20481;-59
2022/02/13 02:07:18;;;;;;;9.40;4.80;;;;;;;3.15;61.54;99996.31;5091436;28;20051;-59
2022/02/13 02:09:46;;;;;;;8.35;4.97;;;;;;;3.14;61.32;99986.78;5090840;28;20052;-59
2022/02/13 02:12:13;;;;;;;10.68;5.22;;;;;;;3.11;61.52;99981.66;5091467;28;20055;-59
2022/02/13 02:14:41;;;;;;;10.27;5.22;;;;;;;3.12;61.40;99985.97;5091214;28;20090;-60
2022/02/13 02:17:08;;;;;;;6.53;4.80;;;;;;;3.10;61.47;99966.97;5091432;28;20126;-59
2022/02/13 02:19:36;;;;;;;13.32;5.75;;;;;;;3.08;61.51;99963.53;5090860;28;20051;-59
2022/02/13 02:22:08;;;;;;;12.45;5.45;;;;;;;3.06;61.46;99981.75;5090270;28;20047;-60
2022/02/13 02:24:35;;;;;;;10.20;5.20;;;;;;;3.06;61.62;99966.16;5090103;28;20412;-57
2022/02/13 02:27:03;;;;;;;11.48;4.32;;;;;;;3.08;62.13;99958.31;5091152;28;20094;-59
2022/02/13 02:29:30;;;;;;;9.77;5.20;;;;;;;3.06;61.48;99947.09;5090875;28;20048;-59
2022/02/13 02:31:57;;;;;;;10.10;4.93;;;;;;;3.06;61.28;99947.94;5090806;28;20056;-60
2022/02/13 02:34:24;;;;;;;9.85;4.93;;;;;;;3.06;61.71;99945.34;5090640;28;20097;-60
2022/02/13 02:36:51;;;;;;;12.48;5.45;;;;;;;3.05;61.21;99947.97;5089803;28;20052;-60
2022/02/13 02:39:18;;;;;;;11.55;5.10;;;;;;;3.04;61.99;99938.47;5090759;28;20044;-59
2022/02/13 02:41:44;;;;;;;10.05;5.00;;;;;;;3.02;61.67;99935.91;5091089;28;20051;-59
2022/02/13 02:44:11;;;;;;;11.50;4.78;;;;;;;3.01;61.71;99929.00;5091212;28;20047;-59
2022/02/13 02:46:37;;;;;;;9.40;4.80;;;;;;;2.99;61.41;99928.19;5090842;28;20051;-60
2022/02/13 02:49:04;;;;;;;16.70;6.13;;;;;;;2.99;61.59;99918.63;5090874;28;20071;-61
2022/02/13 02:51:31;;;;;;;11.65;5.25;;;;;;;2.99;62.08;99923.81;5090106;28;20040;-59
2022/02/13 02:53:57;;;;;;;10.60;5.35;;;;;;;2.98;61.23;99900.44;5090982;28;20048;-60
2022/02/13 02:56:24;;;;;;;11.73;5.68;;;;;;;2.96;61.43;99900.47;5090731;28;20052;-59
2022/02/13 02:58:50;;;;;;;13.68;4.82;;;;;;;2.95;61.39;99890.97;5090792;28;20466;-59
2022/02/13 03:01:17;;;;;;;10.60;5.75;;;;;;;2.96;61.59;99897.03;5090527;28;20048;-58
2022/02/13 03:03:43;;;;;;;9.02;4.55;;;;;;;2.97;61.51;99902.22;5090474;28;20059;-59
2022/02/13 03:06:10;;;;;;;11.07;5.88;;;;;;;2.95;61.62;99888.38;5090969;28;20044;-59
2022/02/13 03:08:37;;;;;;;10.52;5.32;;;;;;;2.96;61.22;99876.25;5090824;28;20044;-59
2022/02/13 03:11:03;;;;;;;9.98;4.80;;;;;;;2.95;61.35;99875.38;5090362;28;20500;-59
2022/02/13 03:13:30;;;;;;;9.27;4.85;;;;;;;2.94;61.47;99868.47;5090465;28;20048;-61
2022/02/13 03:15:58;;;;;;;15.20;5.40;;;;;;;2.94;61.63;99854.59;5090262;28;20101;-59
2022/02/13 03:18:26;;;;;;;9.68;4.90;;;;;;;2.93;61.43;99864.16;5090600;28;20105;-59
2022/02/13 03:20:52;;;;;;;10.75;5.07;;;;;;;2.92;61.36;99861.59;5090648;28;20048;-59
2022/02/13 03:23:19;;;;;;;10.52;5.20;;;;;;;2.91;61.37;99859.91;5090504;28;20125;-57
2022/02/13 03:25:46;;;;;;;9.80;5.10;;;;;;;2.89;61.55;99833.94;5090592;28;20048;-58
2022/02/13 03:28:14;;;;;;;9.60;5.47;;;;;;;2.86;60.98;99834.00;5089245;28;20060;-60
2022/02/13 03:30:41;;;;;;;7.47;4.65;;;;;;;2.86;61.64;99841.78;5090248;28;20507;-59
2022/02/13 03:33:08;;;;;;;12.25;5.05;;;;;;;2.82;61.54;99830.63;5090497;28;20109;-56
2022/02/13 03:35:35;;;;;;;9.82;4.63;;;;;;;2.84;61.55;99833.19;5090710;28;20056;-59
2022/02/13 03:38:05;;;;;;;9.60;4.80;;;;;;;2.79;60.72;99841.09;5090280;28;20089;-60
2022/02/13 03:40:33;;;;;;;11.60;5.13;;;;;;;2.80;61.83;99840.19;5090055;28;20416;-60
2022/02/13 03:43:00;;;;;;;10.65;5.40;;;;;;;2.77;61.40;99834.22;5089865;28;20439;-58
2022/02/13 03:45:26;;;;;;;12.93;5.28;;;;;;;2.77;61.35;99842.03;5092016;28;20074;-57
2022/02/13 03:47:53;;;;;;;9.02;5.32;;;;;;;2.73;61.18;99831.69;5094622;28;20056;-60
2022/02/13 03:50:19;;;;;;;10.60;5.40;;;;;;;2.77;61.90;99824.69;5093979;28;20094;-59
2022/02/13 03:52:46;;;;;;;9.10;4.95;;;;;;;2.73;61.55;99816.09;5093908;28;20090;-59
2022/02/13 03:55:16;;;;;;;14.20;5.50;;;;;;;2.75;61.75;99816.06;5093839;28;20094;-60
2022/02/13 03:57:43;;;;;;;10.95;4.88;;;;;;;2.72;61.17;99811.78;5073664;28;20130;-60
2022/02/13 04:00:12;;;;;;;12.80;5.25;;;;;;;2.71;61.34;99815.28;5088886;28;20044;-59
2022/02/13 04:02:40;;;;;;;14.23;6.00;;;;;;;2.69;61.36;99818.81;5072493;28;20052;-60
2022/02/13 04:05:09;;;;;;;13.32;5.80;;;;;;;2.65;61.08;99805.00;5072338;28;20052;-60
2022/02/13 04:07:40;;;;;;;11.75;5.38;;;;;;;2.60;60.77;99812.94;5073802;28;20083;-58
2022/02/13 04:10:08;;;;;;;11.77;5.80;;;;;;;2.61;61.48;99800.78;5082852;28;20097;-61
2022/02/13 04:12:34;;;;;;;11.57;6.05;;;;;;;2.57;61.27;99796.53;5093753;28;20116;-60
2022/02/13 04:15:03;;;;;;;10.70;6.40;;;;;;;2.56;61.74;99787.91;5093812;28;20048;-60
2022/02/13 04:17:29;;;;;;;14.82;6.95;;;;;;;2.55;61.36;99796.56;5093783;28;20059;-59
2022/02/13 04:19:56;;;;;;;13.10;7.55;;;;;;;2.52;61.77;99791.47;5093438;28;20048;-60
2022/02/13 04:22:22;;;;;;;14.45;9.63;;;;;;;2.52;61.73;99788.88;5091992;28;20098;-61
2022/02/13 04:24:49;;;;;;;19.63;12.55;;;;;;;2.48;61.89;99782.03;5093160;28;20105;-60
2022/02/13 04:27:18;;;;;;;20.00;12.27;;;;;;;2.49;61.81;99794.13;5093497;28;20052;-59
2022/02/13 04:29:44;;;;;;;16.20;10.93;;;;;;;2.45;61.98;99779.50;5093250;28;20052;-59
2022/02/13 04:32:11;;;;;;;16.73;10.60;;;;;;;2.44;62.44;99791.63;5093180;28;20089;-59
2022/02/13 04:34:37;;;;;;;15.63;9.30;;;;;;;2.42;62.15;99775.22;5093155;28;20493;-60
2022/02/13 04:37:04;;;;;;;17.15;9.02;;;;;;;2.42;62.61;99780.44;5093050;28;20044;-58
2022/02/13 04:39:30;;;;;;;12.88;7.72;;;;;;;2.39;62.51;99785.69;5093215;28;20117;-59
2022/02/13 04:41:57;;;;;;;14.07;7.93;;;;;;;2.39;61.89;99772.69;5093287;28;20481;-59
2022/02/13 04:44:23;;;;;;;14.85;6.45;;;;;;;2.38;62.52;99778.78;5093167;28;20105;-60
2022/02/13 04:46:50;;;;;;;16.77;7.57;;;;;;;2.37;62.09;99777.09;5092997;28;20055;-60
2022/02/13 04:49:17;;;;;;;11.15;5.93;;;;;;;2.37;62.55;99774.47;5093070;28;20056;-59
2022/02/13 04:51:43;;;;;;;16.23;6.78;;;;;;;2.37;62.40;99773.63;5092431;28;20549;-59
2022/02/13 04:54:10;;;;;;;9.20;5.80;;;;;;;2.36;62.18;99777.13;5092882;28;20128;-61
2022/02/13 04:56:36;;;;;;;12.70;5.43;;;;;;;2.38;62.32;99780.50;5092649;28;20052;-60
2022/02/13 04:59:03;;;;;;;9.38;5.72;;;;;;;2.38;62.58;99776.19;5092714;28;20097;-63
2022/02/13 05:01:30;;;;;;;10.73;5.18;;;;;;;2.40;62.43;99770.97;5092791;28;20040;-59
2022/02/13 05:03:56;;;;;;;11.65;5.70;;;;;;;2.40;61.99;99766.63;5092683;28;20097;-60
2022/02/13 05:06:23;;;;;;;12.48;5.82;;;;;;;2.39;62.38;99770.09;5092672;28;20048;-59
2022/02/13 05:08:50;;;;;;;10.07;5.43;;;;;;;2.38;61.68;99771.00;5092702;28;20048;-59
2022/02/13 05:11:17;;;;;;;14.98;5.40;;;;;;;2.37;62.26;99766.69;5092747;28;20056;-59
2022/02/13 05:13:44;;;;;;;12.65;6.05;;;;;;;2.38;62.35;99765.78;5092861;28;20044;-57
2022/02/13 05:16:10;;;;;;;12.13;5.22;;;;;;;2.38;62.83;99771.00;5092235;28;20110;-60
2022/02/13 05:18:37;;;;;;;10.77;5.22;;;;;;;2.38;62.54;99757.13;5092451;28;20040;-59
2022/02/13 05:21:03;;;;;;;8.20;4.70;;;;;;;2.36;62.06;99749.41;5092127;28;20052;-60
2022/02/13 05:23:30;;;;;;;9.65;5.50;;;;;;;2.34;61.90;99758.97;5091389;28;20048;-57
2022/02/13 05:25:56;;;;;;;12.57;5.20;;;;;;;2.33;62.18;99754.66;5092388;28;20044;-61
2022/02/13 05:28:23;;;;;;;11.10;5.32;;;;;;;2.32;62.04;99760.75;5092112;28;20109;-59
2022/02/13 05:30:49;;;;;;;9.30;4.72;;;;;;;2.32;61.63;99761.59;5091997;28;20040;-59
2022/02/13 05:33:16;;;;;;;8.27;4.63;;;;;;;2.32;62.53;99753.78;5092402;28;20113;-56
2022/02/13 05:35:43;;;;;;;11.90;5.45;;;;;;;2.32;62.13;99755.56;5091994;28;20432;-61
2022/02/13 05:38:09;;;;;;;10.65;5.55;;;;;;;2.33;62.29;99757.25;5092391;28;20051;-59
2022/02/13 05:40:36;;;;;;;9.98;5.90;;;;;;;2.32;62.12;99752.97;5091851;28;20044;-60
2022/02/13 05:43:02;;;;;;;12.35;5.28;;;;;;;2.31;62.15;99748.63;5092148;28;20047;-59
2022/02/13 05:45:29;;;;;;;10.95;5.15;;;;;;;2.30;61.90;99745.19;5091891;28;20654;-62
2022/02/13 05:47:56;;;;;;;9.43;4.75;;;;;;;2.28;62.36;99739.16;5092125;28;20051;-59
2022/02/13 05:50:22;;;;;;;8.75;4.97;;;;;;;2.29;62.07;99740.91;5091545;28;20064;-59
2022/02/13 05:52:49;;;;;;;7.95;4.38;;;;;;;2.29;61.91;99745.22;5090657;28;20044;-59
2022/02/13 05:55:15;;;;;;;10.85;5.22;;;;;;;2.27;62.13;99731.41;5091733;28;20051;-61
2022/02/13 05:57:44;;;;;;;7.68;4.38;;;;;;;2.28;62.32;99738.34;5092007;28;20047;-60
2022/02/13 06:00:12;;;;;;;9.10;4.93;;;;;;;2.24;62.14;99737.53;5091487;28;20086;-59
2022/02/13 06:02:40;;;;;;;9.35;5.05;;;;;;;2.22;61.29;99745.34;5090445;28;20051;-59
2022/02/13 06:05:07;;;;;;;15.10;4.88;;;;;;;2.22;62.33;99745.34;5091840;28;20059;-59
2022/02/13 06:07:41;;;;;;;8.93;4.97;;;;;;;2.21;61.45;99740.22;5090846;28;20098;-60
2022/02/13 06:10:09;;;;;;;10.20;5.25;;;;;;;2.21;61.57;99748.84;5090109;28;20059;-59
2022/02/13 06:12:35;;;;;;;11.75;4.90;;;;;;;2.21;62.53;99742.81;5091191;28;20097;-59
2022/02/13 06:15:03;;;;;;;11.00;4.80;;;;;;;2.20;61.47;99741.94;5091453;28;20106;-61
2022/02/13 06:17:30;;;;;;;9.88;4.93;;;;;;;2.20;62.14;99741.09;5089757;28;20068;-57
2022/02/13 06:19:56;;;;;;;11.27;5.05;;;;;;;2.18;60.92;99728.16;5089845;28;20192;-59
2022/02/13 06:22:28;;;;;;;11.68;5.65;;;;;;;2.17;61.85;99726.44;5091301;28;20075;-60
2022/02/13 06:24:54;;;;;;;8.63;4.95;;;;;;;2.17;61.98;99735.97;5091361;28;20478;-60
2022/02/13 06:27:21;;;;;;;8.80;4.93;;;;;;;2.16;61.66;99729.06;5090773;28;20078;-59
2022/02/13 06:29:49;;;;;;;7.82;4.55;;;;;;;2.15;62.06;99733.41;5090821;28;20056;-61
2022/02/13 06:32:16;;;;;;;10.25;5.70;;;;;;;2.15;61.63;99737.75;5089776;28;20048;-59
2022/02/13 06:34:43;;;;;;;10.40;4.78;;;;;;;2.16;61.36;99734.25;5090982;28;20504;-61
2022/02/13 06:37:09;;;;;;;10.98;5.53;;;;;;;2.14;61.29;99736.03;5091240;28;20044;-60
2022/02/13 06:39:36;;;;;;;10.60;5.35;;;;;;;2.14;61.03;99731.72;5090915;28;20101;-63
2022/02/13 06:42:03;;;;;;;11.05;5.18;;;;;;;2.14;61.51;99729.13;5089655;28;20040;-60
2022/02/13 06:44:29;;;;;;;11.35;5.03;;;;;;;2.17;60.82;99731.63;5090923;28;20113;-59
2022/02/13 06:46:58;;;;;;;8.82;5.38;;;;;;;2.19;61.21;99719.47;5091021;28;20105;-58
2022/02/13 06:49:24;;;;;;;7.97;4.70;;;;;;;2.20;61.14;99721.16;5090624;28;20644;-61
2022/02/13 06:51:51;;;;;;;8.10;4.50;;;;;;;2.22;61.51;99727.16;5090584;28;20040;-59
2022/02/13 06:54:17;;;;;;;9.07;4.93;;;;;;;2.23;61.49;99725.44;5090711;28;20496;-59
2022/02/13 06:56:44;;;;;;;8.60;4.95;;;;;;;2.24;61.42;99715.91;5090836;28;20489;-59
2022/02/13 06:59:11;;;;;;;11.18;5.47;;;;;;;2.24;61.48;99708.13;5090893;28;20125;-61
2022/02/13 07:01:37;;;;;;;7.85;4.47;;;;;;;2.26;61.06;99711.53;5090752;28;20446;-60
2022/02/13 07:04:04;;;;;;;7.25;4.70;;;;;;;2.27;61.30;99718.41;5090617;28;20044;-60
2022/02/13 07:06:30;;;;;;;11.50;5.10;;;;;;;2.26;61.20;99709.78;5090827;28;20492;-59
2022/02/13 07:08:57;;;;;;;11.27;5.10;;;;;;;2.27;60.74;99721.88;5090935;28;20052;-61
2022/02/13 07:11:23;;;;;;;8.45;4.57;;;;;;;2.28;61.10;99712.34;5090297;28;20110;-61
2022/02/13 07:13:50;;;;;;;9.52;4.72;;;;;;;2.29;60.54;99714.94;5090395;28;20562;-60
2022/02/13 07:16:17;;;;;;;11.23;4.72;;;;;;;2.32;60.68;99714.84;5091011;28;20052;-59
2022/02/13 07:18:44;;;;;;;8.77;4.82;;;;;;;2.34;60.89;99717.41;5091581;28;20040;-59
2022/02/13 07:21:11;;;;;;;7.85;4.38;;;;;;;2.37;61.21;99724.25;5094466;28;20109;-59
2022/02/13 07:23:37;;;;;;;8.38;4.45;;;;;;;2.38;61.27;99719.03;5094592;28;20048;-61
2022/02/13 07:26:04;;;;;;;7.72;4.70;;;;;;;2.38;60.47;99698.25;5094480;28;20504;-59
2022/02/13 07:31:16;;;;;;;8.13;4.25;;;;;;;2.41;60.24;99677.41;5094282;28;20117;-59
2022/02/13 07:33:42;;;;;;;11.43;4.28;;;;;;;2.43;60.68;99669.56;5094572;28;20537;-60
2022/02/13 07:36:09;;;;;;;8.48;4.68;;;;;;;2.43;59.86;99680.81;5094604;28;20511;-59
2022/02/13 07:38:35;;;;;;;14.10;4.43;;;;;;;2.46;60.37;99672.94;5094180;28;20081;-61
2022/02/13 07:41:02;;;;;;;8.75;4.45;;;;;;;2.47;60.02;99677.25;5094398;28;20059;-59
2022/02/13 07:43:29;;;;;;;10.13;4.28;;;;;;;2.51;60.39;99674.56;5094635;28;20044;-60
2022/02/13 07:45:55;;;;;;;6.82;4.00;;;;;;;2.52;59.92;99666.75;5093827;28;20048;-60
2022/02/13 07:48:22;;;;;;;10.40;5.05;;;;;;;2.55;60.34;99665.81;5094398;28;20052;-61
2022/02/13 07:50:49;;;;;;;7.40;4.60;;;;;;;2.56;59.43;99670.97;5093939;28;20056;-59
2022/02/13 07:53:16;;;;;;;10.02;4.68;;;;;;;2.58;59.19;99669.19;5094310;28;20668;-56
2022/02/13 07:55:42;;;;;;;10.13;4.78;;;;;;;2.63;59.56;99665.59;5094271;28;20576;-60
2022/02/13 07:58:10;;;;;;;9.70;4.18;;;;;;;2.65;59.67;99654.28;5094630;28;20051;-59
2022/02/13 08:00:37;;;;;;;12.38;4.90;;;;;;;2.68;59.10;99658.53;5091938;28;20188;-60
2022/02/13 08:03:04;;;;;;;7.70;4.70;;;;;;;2.72;58.92;99666.22;5092901;28;20052;-57
2022/02/13 08:05:31;;;;;;;6.72;4.28;;;;;;;2.77;59.37;99652.25;5093921;28;20109;-59
2022/02/13 08:07:58;;;;;;;8.50;4.38;;;;;;;2.81;59.13;99652.13;5093805;28;20484;-58
2022/02/13 08:10:24;;;;;;;8.68;4.32;;;;;;;2.85;58.57;99634.72;5093655;28;20097;-61
2022/02/13 08:12:51;;;;;;;6.47;4.68;;;;;;;2.87;57.77;99627.72;5093998;28;20093;-59
2022/02/13 08:15:18;;;;;;;7.80;4.05;;;;;;;2.93;58.69;99630.16;5093705;28;20089;-58
2022/02/13 08:17:44;;;;;;;7.38;4.15;;;;;;;2.97;58.36;99639.59;5093462;28;20105;-61
2022/02/13 08:20:14;;;;;;;8.77;4.88;;;;;;;3.03;58.46;99645.50;5092060;28;20527;-59
2022/02/13 08:22:41;;;;;;;10.55;5.00;;;;;;;3.07;57.33;99641.94;5092437;28;20052;-60
2022/02/13 08:25:09;;;;;;;8.65;4.25;;;;;;;3.12;57.95;99653.03;5093515;28;20048;-60
2022/02/13 08:27:35;;;;;;;8.38;4.30;;;;;;;3.16;58.22;99640.78;5092463;28;20056;-55
2022/02/13 08:30:03;;;;;;;10.02;4.88;;;;;;;3.19;58.13;99638.97;5092767;28;20094;-59
2022/02/13 08:32:30;;;;;;;7.18;4.22;;;;;;;3.23;57.95;99635.41;5092733;28;20109;-60
2022/02/13 08:34:56;;;;;;;9.95;4.68;;;;;;;3.26;57.20;99640.50;5093558;28;20105;-59
2022/02/13 08:37:23;;;;;;;8.93;4.25;;;;;;;3.29;57.52;99634.34;5093316;28;20048;-61
2022/02/13 08:39:49;;;;;;;6.72;4.07;;;;;;;3.31;56.92;99622.16;5093333;28;20094;-58
2022/02/13 08:42:16;;;;;;;8.10;4.50;;;;;;;3.35;57.26;99641.13;5093353;28;20102;-59
2022/02/13 08:44:42;;;;;;;7.00;4.60;;;;;;;3.36;57.46;99622.88;5093048;28;20040;-60
2022/02/13 08:47:09;;;;;;;10.68;4.85;;;;;;;3.40;57.39;99623.63;5093102;28;20047;-61
2022/02/13 08:49:35;;;;;;;7.47;4.13;;;;;;;3.45;57.93;99633.91;5092888;28;20052;-60
2022/02/13 08:52:04;;;;;;;10.77;4.80;;;;;;;3.47;57.14;99640.78;5093050;28;20048;-59
2022/02/13 08:54:31;;;;;;;6.88;4.40;;;;;;;3.52;57.27;99631.06;5093040;28;20494;-61
2022/02/13 08:56:57;;;;;;;13.40;4.90;;;;;;;3.56;57.55;99636.19;5093368;28;20156;-59
2022/02/13 08:59:24;;;;;;;6.72;4.25;;;;;;;3.56;56.84;99624.03;5091250;28;20047;-59
2022/02/13 09:01:51;;;;;;;8.68;4.50;;;;;;;3.60;57.90;99620.44;5092427;28;20048;-57
2022/02/13 09:04:17;;;;;;;9.10;4.40;;;;;;;3.64;57.64;99623.81;5092807;28;20488;-61
2022/02/13 09:06:44;;;;;;;7.45;4.32;;;;;;;3.66;57.96;99622.00;5092586;28;20098;-60
2022/02/13 09:09:10;;;;;;;7.35;4.80;;;;;;;3.67;57.21;99620.25;5092485;28;20047;-60
2022/02/13 09:11:37;;;;;;;7.85;4.60;;;;;;;3.70;57.36;99617.56;5091498;28;20052;-65
2022/02/13 09:14:04;;;;;;;14.05;5.15;;;;;;;3.73;57.29;99614.84;5091142;28;20561;-62
2022/02/13 09:16:31;;;;;;;6.80;4.03;;;;;;;3.75;56.33;99615.66;5092160;28;20105;-61
2022/02/13 09:18:58;;;;;;;8.35;4.47;;;;;;;3.82;56.96;99621.53;5092871;28;20117;-71
2022/02/13 09:21:25;;;;;;;6.50;4.40;;;;;;;3.86;57.12;99610.97;5091199;28;20488;-71
2022/02/13 09:23:51;;;;;;;7.97;3.83;;;;;;;3.92;57.13;99617.72;5092587;28;20101;-61
2022/02/13 09:26:18;;;;;;;9.23;4.25;;;;;;;3.98;57.26;99609.72;5092440;28;20397;-62
2022/02/13 09:28:44;;;;;;;9.73;4.65;;;;;;;4.03;56.98;99610.44;5092146;28;20048;-61
2022/02/13 09:31:11;;;;;;;8.32;4.60;;;;;;;4.12;56.76;99611.88;5092108;28;20070;-60
2022/02/13 09:33:38;;;;;;;10.75;4.53;;;;;;;4.18;56.87;99600.41;5092563;28;20549;-61
2022/02/13 09:36:04;;;;;;;9.15;4.60;;;;;;;4.23;56.24;99601.09;5092219;28;20450;-61
2022/02/13 09:38:31;;;;;;;8.60;4.97;;;;;;;4.33;56.73;99603.41;5089086;28;20047;-61
2022/02/13 09:40:59;;;;;;;8.85;4.78;;;;;;;4.42;56.59;99605.72;5091534;28;20058;-61
2022/02/13 09:43:26;;;;;;;9.75;4.90;;;;;;;4.51;56.05;99591.50;5090846;28;20447;-60
2022/02/13 09:45:54;;;;;;;8.15;4.45;;;;;;;4.60;56.04;99585.13;5091503;28;20377;-60
2022/02/13 09:48:25;;;;;;;8.95;4.45;;;;;;;4.71;56.71;99576.91;5090664;28;20421;-60
2022/02/13 09:50:52;;;;;;;8.88;4.55;;;;;;;4.80;57.15;99568.75;5089824;28;20101;-60
2022/02/13 09:53:19;;;;;;;7.32;4.72;;;;;;;4.86;56.59;99571.13;5090398;28;20130;-61
2022/02/13 09:55:45;;;;;;;8.00;4.15;;;;;;;4.97;57.08;99580.34;5091802;28;20485;-61
2022/02/13 09:58:12;;;;;;;9.98;4.70;;;;;;;5.04;56.42;99574.84;5091692;28;20052;-60
2022/02/13 10:01:02;;;;;;;9.98;4.35;;;;;;;5.11;54.31;99566.78;5089156;28;20040;-60
2022/02/13 10:03:33;;;;;;;7.57;5.03;;;;;;;5.19;55.49;99564.72;5090546;28;20058;-62
2022/02/13 10:06:19;;;;;;;6.47;4.55;;;;;;;5.26;55.97;99560.97;5090358;28;20100;-62
2022/02/13 10:08:48;;;;;;;7.32;4.28;;;;;;;5.34;55.59;99574.59;5091191;28;20386;-62
2022/02/13 10:11:19;;;;;;;8.23;4.38;;;;;;;5.43;56.31;99549.03;5089548;28;20567;-61
2022/02/13 10:14:22;;;;;;;8.40;4.90;;;;;;;5.48;51.53;99545.34;5091136;28;20083;-60
2022/02/13 10:16:49;;;;;;;9.73;4.70;;;;;;;5.61;56.41;99552.69;5078416;28;20093;-60
2022/02/13 10:19:25;;;;;;;8.48;4.55;;;;;;;5.70;56.92;99548.84;5089237;28;20048;-60
2022/02/13 10:21:56;;;;;;;5.55;4.07;;;;;;;5.78;55.92;99559.00;5091096;28;20050;-60
2022/02/13 10:24:32;;;;;;;9.02;4.85;;;;;;;5.81;52.68;99554.50;5090180;28;20089;-61
2022/02/13 10:27:15;;;;;;;7.68;4.65;;;;;;;5.92;53.21;99542.75;5091179;28;20102;-61
2022/02/13 10:29:48;;;;;;;6.32;4.18;;;;;;;6.01;53.88;99545.00;5088739;28;20032;-60
2022/02/13 10:32:30;;;;;;;;;;;;;;;6.09;50.96;99535.09;5091003;28;20044;-59
2022/02/13 10:35:10;;;;;;;7.40;4.55;;;;;;;6.19;51.77;99526.88;5069551;28;20372;-60
2022/02/13 10:37:43;;;;;;;6.53;4.65;;;;;;;6.28;54.34;99515.19;5070716;28;20048;-60
2022/02/13 10:40:13;;;;;;;5.68;4.25;;;;;;;6.37;55.32;99526.09;5070062;28;20048;-60
2022/02/13 10:42:40;;;;;;;7.05;4.30;;;;;;;6.47;55.92;99520.47;5086297;28;20055;-60
2022/02/13 10:45:18;;;;;;;12.02;4.90;;;;;;;6.52;53.09;99521.09;5070874;28;20092;-61
2022/02/13 10:47:46;;;;;;;7.25;4.57;;;;;;;6.62;54.33;99530.22;5070014;28;20136;-61
2022/02/13 10:50:17;;;;;;;9.32;4.72;;;;;;;6.71;54.07;99520.28;5089102;28;20519;-60
2022/02/13 10:52:46;;;;;;;10.20;4.78;;;;;;;6.81;54.72;99511.13;5089334;28;20447;-62
2022/02/13 10:55:13;;;;;;;7.80;4.30;;;;;;;6.91;55.31;99506.28;5089172;28;20039;-61
2022/02/13 10:57:41;;;;;;;5.70;3.72;;;;;;;7.02;55.58;99497.94;5089474;28;20036;-61
2022/02/13 11:00:09;;;;;;;6.20;4.25;;;;;;;7.15;55.55;99501.69;5090193;28;20123;-61
2022/02/13 11:02:39;;;;;;;8.65;4.22;;;;;;;7.23;53.59;99500.47;5088488;28;20109;-60
2022/02/13 11:05:09;;;;;;;7.25;4.10;;;;;;;7.34;53.29;99492.97;5090144;28;20040;-61
2022/02/13 11:07:47;;;;;;;9.40;4.03;;;;;;;7.45;52.79;99484.59;5089480;28;20048;-61
2022/02/13 11:10:26;;;;;;;6.13;3.92;;;;;;;7.59;51.75;99494.38;5088361;28;20060;-61
2022/02/13 11:12:56;;;;;;;5.40;3.95;;;;;;;7.73;54.29;99498.13;5089447;28;20101;-62
2022/02/13 11:15:28;;;;;;;6.05;4.10;;;;;;;7.85;53.33;99481.75;5088987;28;20051;-62
2022/02/13 11:18:01;;;;;;;5.63;4.15;;;;;;;7.98;52.86;99468.03;5090711;28;20047;-61
2022/02/13 11:20:28;;;;;;;6.00;3.72;;;;;;;8.12;53.64;99468.22;5088386;28;20044;-61
2022/02/13 11:23:19;;;;;;;5.20;3.90;;;;;;;8.31;51.07;99472.50;5089103;28;20052;-62
2022/02/13 11:25:51;;;;;;;5.90;4.20;;;;;;;8.57;52.58;99460.63;5089166;28;20047;-62
2022/02/13 11:28:26;;;;;;;4.88;3.65;;;;;;;8.85;55.79;99460.91;5088334;28;20052;-61
2022/02/13 11:30:58;;;;;;;7.35;4.35;;;;;;;9.08;52.58;99451.78;5088890;28;20722;-63
2022/02/13 11:33:28;;;;;;;8.20;4.03;;;;;;;9.32;52.22;99448.72;5088924;28;20091;-61
2022/02/13 11:35:57;;;;;;;5.43;4.15;;;;;;;9.51;52.64;99443.25;5089799;28;20118;-62
2022/02/13 11:38:48;;;;;;;7.63;3.97;;;;;;;9.59;45.41;99431.44;5089138;28;20044;-64
2022/02/13 11:41:17;;;;;;;6.90;4.13;;;;;;;9.74;50.88;99427.94;5088043;28;20056;-61
2022/02/13 11:43:49;;;;;;;6.35;4.10;;;;;;;9.82;48.81;99419.56;5089120;28;20515;-63